createdAt,value
2023-02-22T00:00:01.571Z,4.55
2023-02-22T00:05:03.118Z,4.53
2023-02-22T00:10:09.101Z,4.45
2023-02-22T00:15:13.356Z,4.35
2023-02-22T00:20:19.961Z,4.29
2023-02-22T00:25:24.168Z,4.32
2023-02-22T00:30:28.440Z,4.32
2023-02-22T00:35:31.204Z,4.21
2023-02-22T00:40:34.777Z,4.06
2023-02-22T00:45:37.680Z,4.04
2023-02-22T00:50:39.315Z,4.06
2023-02-22T00:55:40.880Z,3.96
2023-02-22T01:00:43.348Z,3.84
2023-02-22T01:05:44.987Z,3.86
2023-02-22T01:10:46.815Z,3.82
2023-02-22T01:15:48.491Z,3.72
2023-02-22T01:20:50.267Z,3.63
2023-02-22T01:25:52.101Z,3.50
2023-02-22T01:30:56.365Z,3.44
2023-02-22T01:35:59.780Z,3.48
2023-02-22T01:41:01.350Z,3.44
2023-02-22T01:46:05.431Z,3.32
2023-02-22T01:51:12.670Z,3.18
2023-02-22T01:56:15.333Z,3.05
2023-02-22T02:01:19.845Z,2.97
2023-02-22T02:06:21.961Z,2.99
2023-02-22T02:11:26.048Z,2.99
2023-02-22T02:16:39.289Z,2.94
2023-02-22T02:21:49.960Z,2.92
2023-02-22T02:26:54.446Z,2.96
2023-02-22T02:32:14.926Z,2.94
2023-02-22T02:37:34.512Z,2.86
2023-02-22T02:42:45.133Z,2.75
2023-02-22T02:47:53.608Z,2.60
2023-02-22T02:53:00.758Z,2.58
2023-02-22T02:58:06.069Z,2.60
2023-02-22T03:03:43.622Z,2.51
2023-02-22T03:09:14.338Z,2.45
2023-02-22T03:14:37.464Z,2.40
2023-02-22T03:19:56.905Z,2.43
2023-02-22T03:25:14.772Z,2.48
2023-02-22T03:30:21.585Z,2.48
2023-02-22T03:35:30.912Z,2.41
2023-02-22T03:40:43.446Z,2.27
2023-02-22T03:45:48.929Z,2.24
2023-02-22T03:50:51.189Z,2.19
2023-02-22T03:55:58.353Z,2.16
2023-02-22T04:01:00.174Z,2.09
2023-02-22T04:06:01.728Z,1.91
2023-02-22T04:11:03.808Z,1.82
2023-02-22T04:16:06.414Z,1.84
2023-02-22T04:21:09.432Z,1.87
2023-02-22T04:26:10.933Z,1.88
2023-02-22T04:31:12.567Z,1.92
2023-02-22T04:36:16.098Z,1.97
2023-02-22T04:41:19.194Z,1.99
2023-02-22T04:46:20.935Z,2.07
2023-02-22T04:51:22.488Z,2.29
2023-02-22T04:56:24.253Z,2.29
2023-02-22T05:01:25.749Z,2.25
2023-02-22T05:06:27.267Z,2.28
2023-02-22T05:11:29.088Z,2.26
2023-02-22T05:16:30.807Z,2.29
2023-02-22T05:21:32.306Z,2.36
2023-02-22T05:26:33.824Z,2.37
2023-02-22T05:31:35.419Z,2.31
2023-02-22T05:36:37.112Z,2.20
2023-02-22T05:41:38.662Z,2.25
2023-02-22T05:46:40.199Z,2.14
2023-02-22T05:51:42.281Z,2.01
2023-02-22T05:56:43.839Z,1.90
2023-02-22T06:01:45.444Z,1.92
2023-02-22T06:06:46.960Z,1.89
2023-02-22T06:11:48.442Z,1.81
2023-02-22T06:16:54.828Z,1.85
2023-02-22T06:22:00.097Z,1.86
2023-02-22T06:27:02.547Z,1.88
2023-02-22T06:32:04.499Z,1.92
2023-02-22T06:37:06.165Z,2.08
2023-02-22T06:42:07.735Z,2.27
2023-02-22T06:47:09.341Z,2.34
2023-02-22T06:52:10.895Z,2.30
2023-02-22T06:57:12.390Z,2.35
2023-02-22T07:02:14.025Z,2.46
2023-02-22T07:07:15.726Z,2.54
2023-02-22T07:12:17.289Z,2.68
2023-02-22T07:17:18.781Z,2.92
2023-02-22T07:22:20.335Z,2.97
2023-02-22T07:27:22.708Z,3.12
2023-02-22T07:32:24.494Z,3.09
2023-02-22T07:37:26.124Z,3.09
2023-02-22T07:42:27.637Z,2.97
2023-02-22T07:47:29.181Z,2.95
2023-02-22T07:52:30.660Z,2.99
2023-02-22T07:57:33.288Z,2.91
2023-02-22T08:02:34.789Z,2.90
2023-02-22T08:07:40.046Z,2.97
2023-02-22T08:12:41.775Z,3.08
2023-02-22T08:17:43.458Z,3.02
2023-02-22T08:22:45.672Z,3.12
2023-02-22T08:27:48.222Z,3.15
2023-02-22T08:32:50.543Z,3.28
2023-02-22T08:37:55.105Z,3.34
2023-02-22T08:42:57.196Z,3.35
2023-02-22T08:47:59.530Z,3.32
2023-02-22T08:53:04.224Z,3.32
2023-02-22T08:58:09.412Z,3.28
2023-02-22T09:03:14.488Z,3.41
2023-02-22T09:08:17.680Z,3.61
2023-02-22T09:13:19.509Z,3.93
2023-02-22T09:18:21.307Z,4.05
2023-02-22T09:23:22.789Z,4.13
2023-02-22T09:28:25.049Z,4.20
2023-02-22T09:33:26.670Z,4.32
2023-02-22T09:38:30.141Z,4.35
2023-02-22T09:43:51.918Z,4.32
2023-02-22T09:49:15.313Z,4.32
2023-02-22T09:54:25.097Z,4.42
2023-02-22T09:59:40.688Z,4.32
2023-02-22T10:05:05.843Z,4.39
2023-02-22T10:10:13.925Z,4.14
2023-02-22T10:15:28.291Z,4.12
2023-02-22T10:20:54.756Z,4.22
2023-02-22T10:26:09.799Z,4.03
2023-02-22T10:31:22.373Z,3.97
2023-02-22T10:36:26.200Z,4.10
2023-02-22T10:41:34.438Z,4.01
2023-02-22T10:46:40.153Z,4.06
2023-02-22T10:51:41.641Z,4.19
2023-02-22T10:56:49.287Z,4.22
2023-02-22T11:01:50.854Z,4.08
2023-02-22T11:07:01.840Z,3.92
2023-02-22T11:12:16.642Z,3.82
2023-02-22T11:17:31.160Z,3.65
2023-02-22T11:22:41.171Z,3.52
2023-02-22T11:27:46.944Z,3.34
2023-02-22T11:32:56.857Z,3.28
2023-02-22T11:38:21.158Z,3.11
2023-02-22T11:43:22.854Z,2.91
2023-02-22T11:48:24.669Z,2.91
2023-02-22T11:53:45.396Z,2.80
2023-02-22T11:59:00.127Z,2.81
2023-02-22T12:04:33.302Z,2.61
2023-02-22T12:10:13.584Z,2.60
2023-02-22T12:15:28.944Z,2.58
2023-02-22T12:20:43.789Z,2.60
2023-02-22T12:26:01.752Z,2.54
2023-02-22T12:31:23.554Z,2.49
2023-02-22T12:36:33.346Z,2.29
2023-02-22T12:41:44.950Z,2.22
2023-02-22T12:46:51.025Z,2.23
2023-02-22T12:52:21.396Z,2.20
2023-02-22T12:57:48.340Z,2.20
2023-02-22T13:03:04.724Z,2.27
2023-02-22T13:08:13.487Z,2.14
2023-02-22T13:13:21.910Z,2.21
2023-02-22T13:18:39.180Z,2.21
2023-02-22T13:24:16.099Z,2.19
2023-02-22T13:29:28.796Z,2.20
2023-02-22T13:34:48.930Z,2.22
2023-02-22T13:39:54.734Z,2.28
2023-02-22T13:45:19.641Z,2.24
2023-02-22T13:50:36.787Z,2.21
2023-02-22T13:55:41.118Z,2.10
2023-02-22T14:00:46.966Z,2.08
2023-02-22T14:05:53.833Z,2.04
2023-02-22T14:11:00.666Z,2.04
2023-02-22T14:16:05.243Z,2.09
2023-02-22T14:21:20.496Z,2.04
2023-02-22T14:26:34.880Z,1.95
2023-02-22T14:31:46.780Z,1.93
2023-02-22T14:36:56.466Z,1.93
2023-02-22T14:42:21.991Z,1.83
2023-02-22T14:47:30.437Z,1.82
2023-02-22T14:52:36.954Z,1.84
2023-02-22T14:58:03.361Z,1.76
2023-02-22T15:03:05.109Z,1.65
2023-02-22T15:08:08.992Z,1.58
2023-02-22T15:13:33.593Z,1.50
2023-02-22T15:18:44.999Z,1.34
2023-02-22T15:23:55.357Z,1.23
2023-02-22T15:28:58.014Z,1.16
2023-02-22T15:34:27.042Z,1.15
2023-02-22T15:39:34.352Z,1.03
2023-02-22T15:44:41.650Z,0.95
2023-02-22T15:49:43.272Z,0.91
2023-02-22T15:54:49.368Z,0.91
2023-02-22T15:59:57.192Z,0.89
2023-02-22T16:05:12.359Z,0.82
2023-02-22T16:10:35.325Z,0.72
2023-02-22T16:15:37.320Z,0.69
2023-02-22T16:20:39.714Z,0.62
2023-02-22T16:25:41.336Z,0.57
2023-02-22T16:30:43.274Z,0.53
2023-02-22T16:35:52.625Z,0.43
2023-02-22T16:40:58.054Z,0.37
2023-02-22T16:46:04.060Z,0.36
2023-02-22T16:51:26.972Z,0.31
2023-02-22T16:56:31.175Z,0.23
2023-02-22T17:01:35.301Z,0.23
2023-02-22T17:06:37.505Z,0.21
2023-02-22T17:11:39.239Z,0.21
2023-02-22T17:16:40.703Z,0.20
2023-02-22T17:21:42.294Z,0.21
2023-02-22T17:26:44.071Z,0.23
2023-02-22T17:31:45.969Z,0.21
2023-02-22T17:36:47.571Z,0.18
2023-02-22T17:41:55.072Z,0.16
2023-02-22T17:46:56.605Z,0.15
2023-02-22T17:51:58.621Z,0.14
2023-02-22T17:57:00.891Z,0.12
2023-02-22T18:02:03.412Z,0.13
2023-02-22T18:07:05.461Z,0.15
2023-02-22T18:12:07.037Z,0.20
2023-02-22T18:17:09.017Z,0.22
2023-02-22T18:22:10.637Z,0.25
2023-02-22T18:27:12.154Z,0.28
2023-02-22T18:32:13.773Z,0.28
2023-02-22T18:37:20.466Z,0.30
2023-02-22T18:42:28.932Z,0.31
2023-02-22T18:47:30.477Z,0.32
2023-02-22T18:52:35.156Z,0.30
2023-02-22T18:57:36.629Z,0.24
2023-02-22T19:02:38.208Z,0.21
2023-02-22T19:07:39.858Z,0.19
2023-02-22T19:12:41.443Z,0.16
2023-02-22T19:17:42.994Z,0.12
2023-02-22T19:22:45.822Z,0.12
2023-02-22T19:27:47.395Z,0.14
2023-02-22T19:32:55.363Z,0.12
2023-02-22T19:37:56.815Z,0.10
2023-02-22T19:42:58.520Z,0.09
2023-02-22T19:48:00.033Z,0.05
2023-02-22T19:53:01.773Z,0.03
2023-02-22T19:58:03.278Z,0.02
2023-02-22T20:03:09.880Z,0.02
2023-02-22T20:08:11.672Z,0.03
2023-02-22T20:13:13.272Z,0.03
2023-02-22T20:18:15.170Z,0.03
2023-02-22T20:23:16.836Z,0.02
2023-02-22T20:28:19.676Z,-0.04
2023-02-22T20:33:22.108Z,-0.06
2023-02-22T20:38:23.791Z,-0.07
2023-02-22T20:43:25.495Z,-0.08
2023-02-22T20:48:26.989Z,-0.12
2023-02-22T20:53:28.510Z,-0.13
2023-02-22T20:58:30.080Z,-0.16
2023-02-22T21:03:35.976Z,-0.19
2023-02-22T21:08:37.610Z,-0.20
2023-02-22T21:13:39.888Z,-0.21
2023-02-22T21:18:41.544Z,-0.21
2023-02-22T21:23:43.476Z,-0.25
2023-02-22T21:28:52.389Z,-0.27
2023-02-22T21:33:56.080Z,-0.28
2023-02-22T21:39:00.418Z,-0.33
2023-02-22T21:44:01.988Z,-0.37
2023-02-22T21:49:03.501Z,-0.39
2023-02-22T21:54:07.584Z,-0.42
2023-02-22T21:59:23.727Z,-0.45
2023-02-22T22:04:28.572Z,-0.49
2023-02-22T22:09:35.421Z,-0.54
2023-02-22T22:14:37.569Z,-0.56
2023-02-22T22:19:39.500Z,-0.56
2023-02-22T22:24:46.004Z,-0.57
2023-02-22T22:29:47.544Z,-0.57
2023-02-22T22:34:49.461Z,-0.52
2023-02-22T22:39:51.033Z,-0.53
2023-02-22T22:44:52.545Z,-0.51
2023-02-22T22:50:01.294Z,-0.52
2023-02-22T22:55:03.451Z,-0.53
2023-02-22T23:00:31.642Z,-0.54
2023-02-22T23:05:42.713Z,-0.55
2023-02-22T23:10:44.309Z,-0.62
2023-02-22T23:15:48.869Z,-0.68
2023-02-22T23:20:55.205Z,-0.74
2023-02-22T23:26:18.678Z,-0.76
2023-02-22T23:31:20.631Z,-0.79
2023-02-22T23:36:22.540Z,-0.82
2023-02-22T23:41:28.411Z,-0.82
2023-02-22T23:46:32.931Z,-0.82
2023-02-22T23:51:39.547Z,-0.82
2023-02-22T23:56:47.224Z,-0.84
